Observation data for Tatum on 03/20/2017      Previous  Date  Next       Current Mesonet Observations  Soil Data  Daily Summary Page  Observations in Plain Language
KTAT 200505Z 18009KT 17/05 A3015 RMK A01 T01720053  RH  046%=      5-min Rain = 0
KTAT 200510Z 18011KT 18/06 A3015 RMK A01 T01770055  RH  045%=      5-min Rain = 0
KTAT 200515Z 18012KT 18/06 A3015 RMK A01 T01810056  RH  044%=      5-min Rain = 0
KTAT 200520Z 18012KT 18/06 A3015 RMK A01 T01840057  RH  044%=      5-min Rain = 0
KTAT 200525Z 18012KT 18/06 A3015 RMK A01 T01830057  RH  044%=      5-min Rain = 0
KTAT 200530Z 18011KT 18/06 A3015 RMK A01 T01800058  RH  045%=      5-min Rain = 0
KTAT 200535Z 18011KT 18/06 A3015 RMK A01 T01770058  RH  046%=      5-min Rain = 0
KTAT 200540Z 19011KT 18/06 A3015 RMK A01 T01750058  RH  047%=      5-min Rain = 0
KTAT 200545Z 18011KT 17/06 A3015 RMK A01 T01730057  RH  047%=      5-min Rain = 0
KTAT 200550Z 19012KT 17/06 A3015 RMK A01 T01720058  RH  047%=      5-min Rain = 0
KTAT 200555Z 19012KT 17/06 A3014 RMK A01 T01720058  RH  048%=      5-min Rain = 0
KTAT 200600Z 18013KT 17/06 A3014 RMK A01 T01720060  RH  048%=      5-min Rain = 0
KTAT 200605Z 19013KT 17/06 A3014 RMK A01 T01740062  RH  048%=      5-min Rain = 0
KTAT 200610Z 19013KT 17/06 A3014 RMK A01 T01730063  RH  049%=      5-min Rain = 0
KTAT 200615Z 19013KT 17/06 A3014 RMK A01 T01730064  RH  049%=      5-min Rain = 0
KTAT 200620Z 19013KT 17/07 A3014 RMK A01 T01710066  RH  051%=      5-min Rain = 0
KTAT 200625Z 19012KT 17/07 A3014 RMK A01 T01700067  RH  051%=      5-min Rain = 0
KTAT 200630Z 19012KT 17/07 A3014 RMK A01 T01670068  RH  052%=      5-min Rain = 0
KTAT 200635Z 19011KT 17/07 A3014 RMK A01 T01650069  RH  054%=      5-min Rain = 0
KTAT 200640Z 19011KT 16/07 A3014 RMK A01 T01630070  RH  055%=      5-min Rain = 0
KTAT 200645Z 20011KT 16/07 A3014 RMK A01 T01620071  RH  056%=      5-min Rain = 0
KTAT 200650Z 20011KT 16/07 A3014 RMK A01 T01600072  RH  057%=      5-min Rain = 0
KTAT 200655Z 20011KT 16/08 A3014 RMK A01 T01600075  RH  058%=      5-min Rain = 0
KTAT 200700Z 20012KT 16/08 A3014 RMK A01 T01600076  RH  059%=      5-min Rain = 0
KTAT 200705Z 20012KT 16/08 A3013 RMK A01 T01600078  RH  059%=      5-min Rain = 0
KTAT 200710Z 20012KT 16/08 A3013 RMK A01 T01590080  RH  060%=      5-min Rain = 0
KTAT 200715Z 20012KT 16/08 A3013 RMK A01 T01590082  RH  061%=      5-min Rain = 0
KTAT 200720Z 20013KT 16/09 A3013 RMK A01 T01600085  RH  062%=      5-min Rain = 0
KTAT 200725Z 20013KT 16/09 A3013 RMK A01 T01610087  RH  063%=      5-min Rain = 0
KTAT 200730Z 20012KT 16/09 A3013 RMK A01 T01610089  RH  063%=      5-min Rain = 0
KTAT 200735Z 20013KT 16/09 A3013 RMK A01 T01600090  RH  064%=      5-min Rain = 0
KTAT 200740Z 20013KT 16/09 A3013 RMK A01 T01600091  RH  065%=      5-min Rain = 0
KTAT 200745Z 20013KT 16/09 A3013 RMK A01 T01590092  RH  065%=      5-min Rain = 0
KTAT 200750Z 20012KT 16/09 A3013 RMK A01 T01580092  RH  066%=      5-min Rain = 0
KTAT 200755Z 20012KT 16/09 A3013 RMK A01 T01560091  RH  066%=      5-min Rain = 0
KTAT 200800Z 20012KT 15/09 A3013 RMK A01 T01540091  RH  067%=      5-min Rain = 0
KTAT 200805Z 20011KT 15/09 A3013 RMK A01 T01520091  RH  068%=      5-min Rain = 0
KTAT 200810Z 20010KT 15/09 A3013 RMK A01 T01500090  RH  069%=      5-min Rain = 0
KTAT 200815Z 21011KT 15/09 A3012 RMK A01 T01480091  RH  070%=      5-min Rain = 0
KTAT 200820Z 21011KT 15/09 A3012 RMK A01 T01460090  RH  070%=      5-min Rain = 0
KTAT 200825Z 21010KT 15/09 A3012 RMK A01 T01450090  RH  071%=      5-min Rain = 0
KTAT 200830Z 20010KT 14/09 A3012 RMK A01 T01430090  RH  072%=      5-min Rain = 0
KTAT 200835Z 20010KT 14/09 A3012 RMK A01 T01420090  RH  072%=      5-min Rain = 0
KTAT 200840Z 20009KT 14/09 A3012 RMK A01 T01400090  RH  073%=      5-min Rain = 0
KTAT 200845Z 20009KT 14/09 A3012 RMK A01 T01390090  RH  074%=      5-min Rain = 0
KTAT 200850Z 21009KT 14/09 A3012 RMK A01 T01370090  RH  074%=      5-min Rain = 0
KTAT 200855Z 21009KT 14/09 A3012 RMK A01 T01350089  RH  075%=      5-min Rain = 0
KTAT 200900Z 21008KT 13/09 A3012 RMK A01 T01330089  RH  076%=      5-min Rain = 0
KTAT 200905Z 22009KT 13/09 A3012 RMK A01 T01310088  RH  076%=      5-min Rain = 0
KTAT 200910Z 22009KT 13/09 A3011 RMK A01 T01290087  RH  077%=      5-min Rain = 0
KTAT 200915Z 22009KT 13/09 A3011 RMK A01 T01270087  RH  077%=      5-min Rain = 0
KTAT 200920Z 22008KT 13/09 A3011 RMK A01 T01260086  RH  078%=      5-min Rain = 0
KTAT 200925Z 22008KT 12/09 A3011 RMK A01 T01240085  RH  078%=      5-min Rain = 0
KTAT 200930Z 22008KT 12/08 A3011 RMK A01 T01220084  RH  079%=      5-min Rain = 0
KTAT 200935Z 22008KT 12/08 A3011 RMK A01 T01200084  RH  079%=      5-min Rain = 0
KTAT 200940Z 22009KT 12/08 A3011 RMK A01 T01190083  RH  080%=      5-min Rain = 0
KTAT 200945Z 22009KT 12/08 A3011 RMK A01 T01180083  RH  080%=      5-min Rain = 0
KTAT 200950Z 22009KT 12/08 A3011 RMK A01 T01180083  RH  081%=      5-min Rain = 0
KTAT 200955Z 22009KT 12/08 A3011 RMK A01 T01180083  RH  080%=      5-min Rain = 0
KTAT 201000Z 22009KT 12/08 A3011 RMK A01 T01180083  RH  081%=      5-min Rain = 0
KTAT 201005Z 22009KT 12/08 A3011 RMK A01 T01180083  RH  080%=      5-min Rain = 0
KTAT 201010Z 22009KT 12/08 A3011 RMK A01 T01180083  RH  080%=      5-min Rain = 0
KTAT 201015Z 22008KT 12/08 A3011 RMK A01 T01180083  RH  080%=      5-min Rain = 0
KTAT 201020Z 22009KT 12/08 A3011 RMK A01 T01160082  RH  081%=      5-min Rain = 0
KTAT 201025Z 21009KT 11/08 A3011 RMK A01 T01140080  RH  081%=      5-min Rain = 0
KTAT 201030Z 21009KT 11/08 A3011 RMK A01 T01130081  RH  081%=      5-min Rain = 0
KTAT 201035Z 21009KT 12/08 A3011 RMK A01 T01150081  RH  081%=      5-min Rain = 0
KTAT 201040Z 21009KT 11/08 A3011 RMK A01 T01140080  RH  081%=      5-min Rain = 0
KTAT 201045Z 22009KT 11/08 A3011 RMK A01 T01120080  RH  081%=      5-min Rain = 0
KTAT 201050Z 21008KT 11/08 A3011 RMK A01 T01100078  RH  082%=      5-min Rain = 0
KTAT 201055Z 22008KT 11/08 A3011 RMK A01 T01080077  RH  082%=      5-min Rain = 0
KTAT 201100Z 22008KT 11/08 A3012 RMK A01 T01060077  RH  083%=      5-min Rain = 0
KTAT 201105Z 22008KT 11/08 A3012 RMK A01 T01060077  RH  084%=      5-min Rain = 0
KTAT 201110Z 22007KT 11/08 A3012 RMK A01 T01050076  RH  084%=      5-min Rain = 0
KTAT 201115Z 30006KT 10/08 A3012 RMK A01 T01030075  RH  084%=      5-min Rain = 0
KTAT 201120Z 27008KT 10/08 A3012 RMK A01 T01020077  RH  086%=      5-min Rain = 0
KTAT 201125Z 23009KT 11/08 A3012 RMK A01 T01090081  RH  084%=      5-min Rain = 0
KTAT 201130Z 25008KT 11/08 A3013 RMK A01 T01120082  RH  083%=      5-min Rain = 0
KTAT 201135Z 25006KT 11/08 A3013 RMK A01 T01110080  RH  082%=      5-min Rain = 0
KTAT 201140Z 26005KT 11/08 A3013 RMK A01 T01090078  RH  083%=      5-min Rain = 0
KTAT 201145Z 28007KT 10/07 A3013 RMK A01 T01040074  RH  083%=      5-min Rain = 0
KTAT 201150Z 27006KT 10/08 A3013 RMK A01 T01020075  RH  085%=      5-min Rain = 0
KTAT 201155Z 27006KT 10/07 A3013 RMK A01 T00990072  RH  084%=      5-min Rain = 0
KTAT 201200Z 27007KT 10/07 A3013 RMK A01 T00950068  RH  085%=      5-min Rain = 0
KTAT 201205Z 27007KT 09/07 A3013 RMK A01 T00900065  RH  086%=      5-min Rain = 0
KTAT 201210Z 27006KT 09/06 A3013 RMK A01 T00880064  RH  086%=      5-min Rain = 0
KTAT 201215Z 25007KT 09/06 A3013 RMK A01 T00870064  RH  087%=      5-min Rain = 0
KTAT 201220Z 26006KT 09/06 A3013 RMK A01 T00870064  RH  087%=      5-min Rain = 0
KTAT 201225Z 27006KT 08/06 A3014 RMK A01 T00840062  RH  087%=      5-min Rain = 0
KTAT 201230Z 28007KT 08/06 A3014 RMK A01 T00830062  RH  088%=      5-min Rain = 0
KTAT 201235Z 28006KT 08/06 A3014 RMK A01 T00830062  RH  088%=      5-min Rain = 0
KTAT 201240Z 28007KT 08/06 A3014 RMK A01 T00830062  RH  088%=      5-min Rain = 0
KTAT 201245Z 28007KT 08/06 A3014 RMK A01 T00820061  RH  088%=      5-min Rain = 0
KTAT 201250Z 29008KT 08/06 A3014 RMK A01 T00800060  RH  088%=      5-min Rain = 0
KTAT 201255Z 28007KT 08/06 A3014 RMK A01 T00820063  RH  089%=      5-min Rain = 0
KTAT 201300Z 27007KT 08/06 A3014 RMK A01 T00830062  RH  088%=      5-min Rain = 0
KTAT 201305Z 27007KT 08/06 A3014 RMK A01 T00840063  RH  088%=      5-min Rain = 0
KTAT 201310Z 27007KT 09/06 A3015 RMK A01 T00850063  RH  087%=      5-min Rain = 0
KTAT 201315Z 27006KT 09/06 A3015 RMK A01 T00860063  RH  086%=      5-min Rain = 0
KTAT 201320Z 27006KT 09/06 A3015 RMK A01 T00870063  RH  086%=      5-min Rain = 0
KTAT 201325Z 28005KT 09/06 A3015 RMK A01 T00890064  RH  086%=      5-min Rain = 0
KTAT 201330Z 27007KT 09/07 A3015 RMK A01 T00910065  RH  085%=      5-min Rain = 0
KTAT 201335Z 26006KT 10/07 A3015 RMK A01 T00960069  RH  084%=      5-min Rain = 0
KTAT 201340Z 26005KT 10/07 A3015 RMK A01 T01030072  RH  082%=      5-min Rain = 0
KTAT 201345Z 25005KT 11/07 A3015 RMK A01 T01090073  RH  080%=      5-min Rain = 0
KTAT 201350Z 23005KT 11/08 A3015 RMK A01 T01130075  RH  078%=      5-min Rain = 0
KTAT 201355Z 23006KT 12/08 A3015 RMK A01 T01180076  RH  077%=      5-min Rain = 0
KTAT 201400Z 23007KT 12/08 A3015 RMK A01 T01230077  RH  074%=      5-min Rain = 0
KTAT 201405Z 23007KT 13/08 A3015 RMK A01 T01290078  RH  072%=      5-min Rain = 0
KTAT 201410Z 23007KT 14/08 A3015 RMK A01 T01350079  RH  070%=      5-min Rain = 0
KTAT 201415Z 23007KT 14/08 A3015 RMK A01 T01410080  RH  068%=      5-min Rain = 0
KTAT 201420Z 23008KT 15/08 A3015 RMK A01 T01480081  RH  065%=      5-min Rain = 0
KTAT 201425Z 22008KT 16/08 A3015 RMK A01 T01570082  RH  062%=      5-min Rain = 0
KTAT 201430Z 23007KT 17/08 A3015 RMK A01 T01650081  RH  058%=      5-min Rain = 0
KTAT 201435Z 26006KT 17/08 A3016 RMK A01 T01730079  RH  055%=      5-min Rain = 0
KTAT 201440Z 26006KT 18/07 A3016 RMK A01 T01810074  RH  050%=      5-min Rain = 0
KTAT 201445Z 27006KT 19/07 A3016 RMK A01 T01890071  RH  047%=      5-min Rain = 0
KTAT 201450Z 28007KT 20/06 A3016 RMK A01 T01980056  RH  040%=      5-min Rain = 0
KTAT 201455Z 30008KT 21/05 A3016 RMK A01 T02050046  RH  036%=      5-min Rain = 0
KTAT 201500Z 30008KT 21/04 A3016 RMK A01 T02080042  RH  034%=      5-min Rain = 0
KTAT 201505Z 30007KT 21/04 A3017 RMK A01 T02120039  RH  033%=      5-min Rain = 0
KTAT 201510Z 30007KT 21/04 A3017 RMK A01 T02130042  RH  033%=      5-min Rain = 0
KTAT 201515Z 30007KT 22/04 A3016 RMK A01 T02200038  RH  031%=      5-min Rain = 0
KTAT 201520Z 31008KT 23/04 A3016 RMK A01 T02280036  RH  029%=      5-min Rain = 0
KTAT 201525Z 30008KT 23/03 A3016 RMK A01 T02320033  RH  028%=      5-min Rain = 0
KTAT 201530Z 30007KT 24/03 A3016 RMK A01 T02370033  RH  027%=      5-min Rain = 0
KTAT 201535Z 29007KT 24/03 A3016 RMK A01 T02420029  RH  025%=      5-min Rain = 0
KTAT 201540Z 30008KT 25/02 A3016 RMK A01 T02450024  RH  024%=      5-min Rain = 0
KTAT 201545Z 30009KT 25/02 A3016 RMK A01 T02490021  RH  023%=      5-min Rain = 0
KTAT 201550Z 30011KT 25/02 A3016 RMK A01 T02520016  RH  022%=      5-min Rain = 0
KTAT 201555Z 29010KT 26/01 A3016 RMK A01 T02550014  RH  021%=      5-min Rain = 0
KTAT 201600Z 30011KT 26/01 A3016 RMK A01 T02590011  RH  020%=      5-min Rain = 0
KTAT 201605Z 29010KT 26/01 A3016 RMK A01 T02600006  RH  019%=      5-min Rain = 0
KTAT 201610Z 29011KT 26/00 A3016 RMK A01 T02610004  RH  019%=      5-min Rain = 0
KTAT 201615Z 29011KT 26/M00 A3016 RMK A01 T02631001  RH  018%=      5-min Rain = 0
KTAT 201620Z 28011KT 27/M01 A3016 RMK A01 T02661006  RH  017%=      5-min Rain = 0
KTAT 201625Z 29011KT 27/M01 A3016 RMK A01 T02701007  RH  016%=      5-min Rain = 0
KTAT 201630Z 29010KT 27/M01 A3016 RMK A01 T02721012  RH  016%=      5-min Rain = 0
KTAT 201635Z 30010KT 28/M01 A3016 RMK A01 T02751011  RH  016%=      5-min Rain = 0
KTAT 201640Z 30009KT 28/M01 A3016 RMK A01 T02771008  RH  016%=      5-min Rain = 0
KTAT 201645Z 30009KT 28/M01 A3016 RMK A01 T02771008  RH  016%=      5-min Rain = 0
KTAT 201650Z 29009KT 28/M01 A3016 RMK A01 T02801008  RH  015%=      5-min Rain = 0
KTAT 201655Z 29009KT 28/M01 A3016 RMK A01 T02811007  RH  015%=      5-min Rain = 0
KTAT 201700Z 30009KT 28/M01 A3016 RMK A01 T02821008  RH  015%=      5-min Rain = 0
KTAT 201705Z 31008KT 28/M01 A3016 RMK A01 T02811010  RH  015%=      5-min Rain = 0
KTAT 201710Z 31009KT 28/M01 A3016 RMK A01 T02841010  RH  015%=      5-min Rain = 0
KTAT 201715Z 29009KT 28/M02 A3016 RMK A01 T02821015  RH  014%=      5-min Rain = 0
KTAT 201720Z 30009G14KT 29/M02 A3016 RMK A01 T02851015  RH  014%=      5-min Rain = 0
KTAT 201725Z 29009KT 29/M02 A3016 RMK A01 T02861023  RH  013%=      5-min Rain = 0
KTAT 201730Z 29008KT 29/M03 A3016 RMK A01 T02871025  RH  013%=      5-min Rain = 0
KTAT 201735Z 31009KT 29/M03 A3016 RMK A01 T02901027  RH  013%=      5-min Rain = 0
KTAT 201740Z 31008G13KT 29/M04 A3016 RMK A01 T02911040  RH  011%=      5-min Rain = 0
KTAT 201745Z 31008G13KT 29/M04 A3015 RMK A01 T02941037  RH  012%=      5-min Rain = 0
KTAT 201750Z 31007KT 30/M04 A3015 RMK A01 T02961039  RH  011%=      5-min Rain = 0
KTAT 201755Z 28007KT 30/M04 A3015 RMK A01 T02961035  RH  012%=      5-min Rain = 0
KTAT 201800Z 28007KT 30/M03 A3015 RMK A01 T02971032  RH  012%=      5-min Rain = 0
KTAT 201805Z 27006G11KT 30/M04 A3015 RMK A01 T02961035  RH  012%=      5-min Rain = 0
KTAT 201810Z 31008KT 30/M03 A3014 RMK A01 T03001030  RH  012%=      5-min Rain = 0
KTAT 201815Z 33005KT 30/M03 A3014 RMK A01 T02991033  RH  012%=      5-min Rain = 0
KTAT 201820Z 29007G12KT 30/M04 A3014 RMK A01 T03021035  RH  011%=      5-min Rain = 0
KTAT 201825Z 30005KT 30/M04 A3014 RMK A01 T03011042  RH  011%=      5-min Rain = 0
KTAT 201830Z 32006G16KT 30/M04 A3014 RMK A01 T03021040  RH  011%=      5-min Rain = 0
KTAT 201835Z 30008G13KT 30/M04 A3014 RMK A01 T03011043  RH  010%=      5-min Rain = 0
KTAT 201840Z 30005KT 30/M04 A3013 RMK A01 T02991044  RH  011%=      5-min Rain = 0
KTAT 201845Z 29006G12KT 30/M04 A3013 RMK A01 T03001043  RH  011%=      5-min Rain = 0
KTAT 201850Z 29007KT 31/M04 A3013 RMK A01 T03051044  RH  010%=      5-min Rain = 0
KTAT 201855Z 32004KT 30/M05 A3012 RMK A01 T03001051  RH  010%=      5-min Rain = 0
KTAT 201900Z 32004G19KT 30/M05 A3012 RMK A01 T03031048  RH  010%=      5-min Rain = 0
KTAT 201905Z 26007G12KT 31/M05 A3012 RMK A01 T03081047  RH  010%=      5-min Rain = 0
KTAT 201910Z 27008G16KT 31/M05 A3011 RMK A01 T03081045  RH  010%=      5-min Rain = 0
KTAT 201915Z 29007G12KT 31/M05 A3011 RMK A01 T03071050  RH  010%=      5-min Rain = 0
KTAT 201920Z 28006KT 31/M05 A3011 RMK A01 T03081048  RH  010%=      5-min Rain = 0
KTAT 201925Z 24005G10KT 31/M05 A3011 RMK A01 T03071050  RH  010%=      5-min Rain = 0
KTAT 201930Z 26007G12KT 31/M05 A3011 RMK A01 T03111046  RH  010%=      5-min Rain = 0
KTAT 201935Z 27008G13KT 31/M05 A3011 RMK A01 T03141047  RH  009%=      5-min Rain = 0
KTAT 201940Z 28009KT 31/M05 A301 RMK A01 T03101051  RH  009%=      5-min Rain = 0
KTAT 201945Z 21010G18KT 31/M05 A301 RMK A01 T03121051  RH  009%=      5-min Rain = 0
KTAT 201950Z 26008G14KT 31/M05 A301 RMK A01 T03141048  RH  009%=      5-min Rain = 0
KTAT 201955Z 30007KT 31/M05 A301 RMK A01 T03091054  RH  009%=      5-min Rain = 0
KTAT 202000Z 24004KT 31/M06 A301 RMK A01 T03061055  RH  009%=      5-min Rain = 0
KTAT 202005Z 24006G11KT 31/M05 A301 RMK A01 T03091053  RH  009%=      5-min Rain = 0
KTAT 202010Z 26010G15KT 31/M05 A3009 RMK A01 T03091049  RH  010%=      5-min Rain = 0
KTAT 202015Z 23008KT 31/M05 A3009 RMK A01 T03131048  RH  010%=      5-min Rain = 0
KTAT 202020Z 19006G11KT 32/M05 A3009 RMK A01 T03161046  RH  009%=      5-min Rain = 0
KTAT 202025Z 20004G9KT 32/M05 A3009 RMK A01 T03211045  RH  009%=      5-min Rain = 0
KTAT 202030Z 28009KT 32/M05 A3009 RMK A01 T03161050  RH  009%=      5-min Rain = 0
KTAT 202035Z 29009G17KT 31/M05 A3009 RMK A01 T03111053  RH  009%=      5-min Rain = 0
KTAT 202040Z 28010G15KT 31/M05 A3009 RMK A01 T03091054  RH  009%=      5-min Rain = 0
KTAT 202045Z 29011G17KT 31/M05 A3008 RMK A01 T03101054  RH  009%=      5-min Rain = 0
KTAT 202050Z 30005G12KT 31/M06 A3008 RMK A01 T03071059  RH  009%=      5-min Rain = 0
KTAT 202055Z 26007G16KT 31/M05 A3008 RMK A01 T03101054  RH  009%=      5-min Rain = 0
KTAT 202100Z 27009G16KT 31/M06 A3008 RMK A01 T03091059  RH  009%=      5-min Rain = 0
KTAT 202105Z 27010G17KT 31/M06 A3008 RMK A01 T03111056  RH  009%=      5-min Rain = 0
KTAT 202110Z 29004KT 31/M06 A3008 RMK A01 T03091057  RH  009%=      5-min Rain = 0
KTAT 202115Z 27007G14KT 31/M05 A3007 RMK A01 T03131054  RH  009%=      5-min Rain = 0
KTAT 202120Z 27012KT 31/M06 A3007 RMK A01 T03141056  RH  009%=      5-min Rain = 0
KTAT 202125Z 26010G15KT 31/M06 A3007 RMK A01 T03141055  RH  009%=      5-min Rain = 0
KTAT 202130Z 27008KT 31/M05 A3007 RMK A01 T03141054  RH  009%=      5-min Rain = 0
KTAT 202135Z 24006KT 31/M06 A3007 RMK A01 T03121055  RH  009%=      5-min Rain = 0
KTAT 202140Z 18004KT 32/M06 A3007 RMK A01 T03181056  RH  009%=      5-min Rain = 0
KTAT 202145Z 26009G16KT 32/M05 A3007 RMK A01 T03181052  RH  009%=      5-min Rain = 0
KTAT 202150Z 28013KT 32/M06 A3006 RMK A01 T03161058  RH  009%=      5-min Rain = 0
KTAT 202155Z 28012KT 31/M06 A3006 RMK A01 T03111061  RH  009%=      5-min Rain = 0
KTAT 202200Z 28007G12KT 31/M06 A3006 RMK A01 T03091064  RH  009%=      5-min Rain = 0
KTAT 202205Z 27004G9KT 31/M07 A3006 RMK A01 T03101066  RH  008%=      5-min Rain = 0
KTAT 202210Z 27012G17KT 31/M06 A3006 RMK A01 T03131058  RH  009%=      5-min Rain = 0
KTAT 202215Z 27008G15KT 31/M06 A3006 RMK A01 T03121064  RH  008%=      5-min Rain = 0
KTAT 202220Z 29003G8KT 31/M06 A3006 RMK A01 T03111063  RH  009%=      5-min Rain = 0
KTAT 202225Z 28005G16KT 32/M06 A3005 RMK A01 T03171061  RH  008%=      5-min Rain = 0
KTAT 202230Z 27012KT 31/M06 A3006 RMK A01 T03141063  RH  008%=      5-min Rain = 0
KTAT 202235Z 25008G13KT 31/M06 A3005 RMK A01 T03121063  RH  009%=      5-min Rain = 0
KTAT 202240Z 25009KT 31/M06 A3005 RMK A01 T03121063  RH  008%=      5-min Rain = 0
KTAT 202245Z 23008G13KT 31/M06 A3005 RMK A01 T03131062  RH  009%=      5-min Rain = 0
KTAT 202250Z 26007G12KT 31/M07 A3005 RMK A01 T03101067  RH  008%=      5-min Rain = 0
KTAT 202255Z 24007G15KT 31/M06 A3005 RMK A01 T03121063  RH  009%=      5-min Rain = 0
KTAT 202300Z 27011KT 31/M06 A3005 RMK A01 T03091061  RH  009%=      5-min Rain = 0
KTAT 202305Z 28008KT 31/M06 A3005 RMK A01 T03051063  RH  009%=      5-min Rain = 0
KTAT 202310Z 27011G16KT 31/M06 A3005 RMK A01 T03071059  RH  009%=      5-min Rain = 0
KTAT 202315Z 25012G17KT 31/M06 A3005 RMK A01 T03071059  RH  009%=      5-min Rain = 0
KTAT 202320Z 26011KT 30/M06 A3005 RMK A01 T02951060  RH  010%=      5-min Rain = 0
KTAT 202325Z 27010G15KT 29/M06 A3005 RMK A01 T02891062  RH  010%=      5-min Rain = 0
KTAT 202330Z 25006KT 29/M06 A3005 RMK A01 T02881060  RH  010%=      5-min Rain = 0
KTAT 202335Z 27008KT 29/M06 A3005 RMK A01 T02911056  RH  010%=      5-min Rain = 0
KTAT 202340Z 27008KT 30/M06 A3005 RMK A01 T03001060  RH  009%=      5-min Rain = 0
KTAT 202345Z 26007KT 30/M06 A3005 RMK A01 T03031057  RH  009%=      5-min Rain = 0
KTAT 202350Z 27007KT 30/M06 A3005 RMK A01 T03031059  RH  009%=      5-min Rain = 0
KTAT 202355Z 28007KT 30/M06 A3004 RMK A01 T03021058  RH  009%=      5-min Rain = 0
KTAT 210000Z 29007KT 30/M06 A3004 RMK A01 T03011058  RH  009%=      5-min Rain = 0
KTAT 210005Z 28004KT 30/M06 A3004 RMK A01 T03021058  RH  009%=      5-min Rain = 0
KTAT 210010Z 24005G11KT 30/M06 A3004 RMK A01 T03021055  RH  010%=      5-min Rain = 0
KTAT 210015Z 24009KT 30/M05 A3004 RMK A01 T02971052  RH  010%=      5-min Rain = 0
KTAT 210020Z 25008KT 29/M05 A3004 RMK A01 T02931052  RH  010%=      5-min Rain = 0
KTAT 210025Z 26007KT 29/M05 A3005 RMK A01 T02911051  RH  011%=      5-min Rain = 0
KTAT 210030Z 25008KT 29/M05 A3005 RMK A01 T02871051  RH  011%=      5-min Rain = 0
KTAT 210035Z 25008KT 28/M05 A3005 RMK A01 T02831050  RH  011%=      5-min Rain = 0
KTAT 210040Z 25008KT 28/M05 A3005 RMK A01 T02771051  RH  011%=      5-min Rain = 0
KTAT 210045Z 25008KT 27/M05 A3005 RMK A01 T02671050  RH  012%=      5-min Rain = 0
KTAT 210050Z 25008KT 26/M05 A3005 RMK A01 T02551050  RH  013%=      5-min Rain = 0
KTAT 210055Z 25008KT 24/M05 A3005 RMK A01 T02441050  RH  014%=      5-min Rain = 0
KTAT 210100Z 25009KT 24/M05 A3005 RMK A01 T02361051  RH  015%=      5-min Rain = 0
KTAT 210105Z 26008KT 23/M05 A3005 RMK A01 T02281051  RH  015%=      5-min Rain = 0
KTAT 210110Z 25009KT 22/M05 A3005 RMK A01 T02191053  RH  016%=      5-min Rain = 0
KTAT 210115Z 25008KT 21/M05 A3005 RMK A01 T02111054  RH  017%=      5-min Rain = 0
KTAT 210120Z 25007KT 21/M06 A3005 RMK A01 T02101055  RH  017%=      5-min Rain = 0
KTAT 210125Z 24007KT 21/M06 A3005 RMK A01 T02081055  RH  017%=      5-min Rain = 0
KTAT 210130Z 24008KT 20/M05 A3005 RMK A01 T02031049  RH  018%=      5-min Rain = 0
KTAT 210135Z 25007KT 19/M04 A3005 RMK A01 T01891042  RH  021%=      5-min Rain = 0
KTAT 210140Z 25008KT 18/M04 A3005 RMK A01 T01841041  RH  022%=      5-min Rain = 0
KTAT 210145Z 24009KT 18/M04 A3005 RMK A01 T01801039  RH  022%=      5-min Rain = 0
KTAT 210150Z 25008KT 17/M04 A3006 RMK A01 T01721036  RH  024%=      5-min Rain = 0
KTAT 210155Z 25009KT 17/M04 A3006 RMK A01 T01661037  RH  025%=      5-min Rain = 0
KTAT 210200Z 25010KT 17/M04 A3006 RMK A01 T01671036  RH  025%=      5-min Rain = 0
KTAT 210205Z 25009KT 17/M04 A3006 RMK A01 T01701036  RH  024%=      5-min Rain = 0
KTAT 210210Z 24011KT 17/M04 A3006 RMK A01 T01691038  RH  024%=      5-min Rain = 0
KTAT 210215Z 25011KT 17/M04 A3006 RMK A01 T01691039  RH  024%=      5-min Rain = 0
KTAT 210220Z 26009KT 17/M04 A3006 RMK A01 T01721043  RH  023%=      5-min Rain = 0
KTAT 210225Z 26008KT 17/M04 A3006 RMK A01 T01731044  RH  023%=      5-min Rain = 0
KTAT 210230Z 26008KT 17/M04 A3006 RMK A01 T01671043  RH  024%=      5-min Rain = 0
KTAT 210235Z 26007KT 16/M04 A3006 RMK A01 T01591040  RH  025%=      5-min Rain = 0
KTAT 210240Z 26008KT 15/M04 A3006 RMK A01 T01531039  RH  027%=      5-min Rain = 0
KTAT 210245Z 26008KT 15/M04 A3007 RMK A01 T01471040  RH  027%=      5-min Rain = 0
KTAT 210250Z 26009KT 15/M04 A3007 RMK A01 T01451040  RH  028%=      5-min Rain = 0
KTAT 210255Z 27007KT 14/M04 A3007 RMK A01 T01431040  RH  028%=      5-min Rain = 0
KTAT 210300Z 27006KT 14/M04 A3007 RMK A01 T01411041  RH  029%=      5-min Rain = 0
KTAT 210305Z 26006KT 14/M04 A3007 RMK A01 T01421041  RH  028%=      5-min Rain = 0
KTAT 210310Z 26007KT 14/M04 A3007 RMK A01 T01401041  RH  028%=      5-min Rain = 0
KTAT 210315Z 26008KT 14/M04 A3007 RMK A01 T01401042  RH  028%=      5-min Rain = 0
KTAT 210320Z 27008KT 14/M04 A3007 RMK A01 T01411042  RH  028%=      5-min Rain = 0
KTAT 210325Z 27009KT 14/M04 A3007 RMK A01 T01391043  RH  028%=      5-min Rain = 0
KTAT 210330Z 26008KT 14/M04 A3007 RMK A01 T01441044  RH  027%=      5-min Rain = 0
KTAT 210335Z 26008KT 15/M04 A3007 RMK A01 T01451044  RH  027%=      5-min Rain = 0
KTAT 210340Z 26008KT 15/M05 A3007 RMK A01 T01451046  RH  027%=      5-min Rain = 0
KTAT 210345Z 27006KT 15/M05 A3008 RMK A01 T01471046  RH  026%=      5-min Rain = 0
KTAT 210350Z 27005KT 14/M05 A3008 RMK A01 T01431046  RH  027%=      5-min Rain = 0
KTAT 210355Z 27008KT 14/M05 A3008 RMK A01 T01391045  RH  028%=      5-min Rain = 0
KTAT 210400Z 26008KT 14/M05 A3008 RMK A01 T01361045  RH  028%=      5-min Rain = 0
KTAT 210405Z 26008KT 14/M05 A3008 RMK A01 T01361045  RH  029%=      5-min Rain = 0
KTAT 210410Z 26008KT 14/M05 A3008 RMK A01 T01401046  RH  028%=      5-min Rain = 0
KTAT 210415Z 27007KT 14/M05 A3008 RMK A01 T01441045  RH  027%=      5-min Rain = 0
KTAT 210420Z 25005KT 14/M04 A3008 RMK A01 T01411043  RH  028%=      5-min Rain = 0
KTAT 210425Z 21006KT 13/M04 A3008 RMK A01 T01331040  RH  030%=      5-min Rain = 0
KTAT 210430Z 23007KT 13/M04 A3008 RMK A01 T01311039  RH  031%=      5-min Rain = 0
KTAT 210435Z 23007KT 13/M04 A3008 RMK A01 T01311039  RH  031%=      5-min Rain = 0
KTAT 210440Z 24007KT 13/M04 A3008 RMK A01 T01331039  RH  030%=      5-min Rain = 0
KTAT 210445Z 25008KT 13/M04 A3008 RMK A01 T01341037  RH  031%=      5-min Rain = 0
KTAT 210450Z 26008KT 14/M04 A3008 RMK A01 T01411039  RH  029%=      5-min Rain = 0
KTAT 210455Z 25008KT 15/M04 A3008 RMK A01 T01501041  RH  027%=      5-min Rain = 0
KTAT 210500Z 25007KT 16/M04 A3008 RMK A01 T01571042  RH  026%=      5-min Rain = 0

Page generated in 0.8777 seconds.